createdAt,value
2019-03-31T00:00:36.883Z,63.90
2019-03-31T00:03:09.274Z,64.00
2019-03-31T00:05:41.696Z,64.18
2019-03-31T00:08:14.107Z,64.32
2019-03-31T00:10:46.498Z,64.43
2019-03-31T00:13:18.904Z,64.70
2019-03-31T00:15:51.342Z,64.73
2019-03-31T00:18:23.772Z,64.65
2019-03-31T00:20:56.151Z,64.72
2019-03-31T00:23:28.596Z,64.61
2019-03-31T00:26:01.024Z,64.88
2019-03-31T00:28:33.451Z,64.98
2019-03-31T00:31:06.456Z,64.95
2019-03-31T00:33:38.866Z,65.07
2019-03-31T00:36:11.280Z,65.01
2019-03-31T00:38:43.692Z,65.16
2019-03-31T00:41:16.070Z,64.98
2019-03-31T00:43:48.527Z,64.69
2019-03-31T00:46:20.921Z,64.86
2019-03-31T00:48:53.338Z,64.96
2019-03-31T00:51:25.778Z,65.11
2019-03-31T00:53:58.195Z,64.90
2019-03-31T00:56:30.573Z,65.35
2019-03-31T00:59:02.976Z,65.56
2019-03-31T01:01:38.865Z,65.74
2019-03-31T01:04:13.425Z,65.82
2019-03-31T01:06:47.082Z,65.93
2019-03-31T01:09:34.449Z,66.39
2019-03-31T01:12:08.886Z,66.40
2019-03-31T01:14:41.267Z,66.16
2019-03-31T01:17:14.823Z,66.45
2019-03-31T01:19:47.210Z,66.54
2019-03-31T01:22:19.587Z,66.51
2019-03-31T01:24:52.135Z,66.51
2019-03-31T01:27:25.501Z,66.67
2019-03-31T01:29:57.921Z,66.81
2019-03-31T01:32:30.592Z,66.88
2019-03-31T01:35:02.986Z,66.92
2019-03-31T01:37:35.664Z,66.99
2019-03-31T01:40:08.143Z,66.83
2019-03-31T01:42:40.636Z,67.00
2019-03-31T01:45:13.244Z,67.09
2019-03-31T01:47:45.637Z,67.14
2019-03-31T01:50:18.316Z,67.17
2019-03-31T01:52:50.717Z,67.25
2019-03-31T01:55:23.109Z,67.16
2019-03-31T01:57:55.504Z,67.42
2019-03-31T02:00:47.594Z,67.28
2019-03-31T02:03:19.994Z,67.46
2019-03-31T02:05:52.366Z,67.62
2019-03-31T02:08:24.860Z,68.01
2019-03-31T02:10:57.249Z,68.38
2019-03-31T02:13:29.686Z,68.54
2019-03-31T02:16:02.101Z,68.55
2019-03-31T02:18:34.470Z,68.55
2019-03-31T02:21:06.873Z,68.94
2019-03-31T02:23:39.269Z,68.69
2019-03-31T02:26:11.642Z,68.81
2019-03-31T02:28:44.103Z,68.80
2019-03-31T02:31:16.430Z,68.85
2019-03-31T02:33:48.845Z,68.61
2019-03-31T02:36:21.229Z,68.85
2019-03-31T02:38:53.638Z,68.98
2019-03-31T02:41:26.093Z,69.12
2019-03-31T02:43:59.690Z,69.24
2019-03-31T02:46:32.135Z,69.29
2019-03-31T02:49:04.828Z,68.84
2019-03-31T02:51:37.254Z,68.87
2019-03-31T02:54:09.966Z,69.05
2019-03-31T02:56:43.222Z,69.28
2019-03-31T02:59:17.216Z,69.53
2019-03-31T03:01:52.457Z,69.84
2019-03-31T03:04:25.941Z,69.74
2019-03-31T03:06:59.692Z,69.67
2019-03-31T03:09:33.789Z,69.76
2019-03-31T03:12:09.427Z,69.78
2019-03-31T03:14:41.806Z,69.86
2019-03-31T03:17:14.160Z,69.93
2019-03-31T03:19:46.564Z,70.03
2019-03-31T03:22:18.945Z,69.97
2019-03-31T03:24:52.710Z,69.94
2019-03-31T03:27:25.126Z,69.77
2019-03-31T03:29:57.551Z,69.97
2019-03-31T03:32:29.981Z,70.20
2019-03-31T03:35:02.413Z,70.10
2019-03-31T03:37:34.794Z,70.16
2019-03-31T03:40:07.696Z,70.08
2019-03-31T03:42:40.164Z,70.27
2019-03-31T03:45:12.547Z,70.20
2019-03-31T03:47:44.946Z,70.28
2019-03-31T03:50:17.305Z,70.35
2019-03-31T03:52:49.721Z,70.48
2019-03-31T03:55:22.096Z,70.46
2019-03-31T03:57:54.476Z,70.44
2019-03-31T04:00:26.850Z,70.51
2019-03-31T04:03:00.310Z,70.78
2019-03-31T04:05:32.704Z,70.90
2019-03-31T04:08:05.092Z,70.72
2019-03-31T04:11:20.819Z,70.82
2019-03-31T04:13:50.592Z,70.49
2019-03-31T04:16:22.956Z,70.65
2019-03-31T04:18:55.481Z,70.92
2019-03-31T04:21:28.490Z,70.70
2019-03-31T04:24:00.892Z,70.81
2019-03-31T04:26:34.822Z,70.97
2019-03-31T04:29:07.267Z,70.84
2019-03-31T04:31:39.646Z,71.09
2019-03-31T04:34:12.045Z,71.05
2019-03-31T04:36:44.443Z,70.80
2019-03-31T04:39:16.838Z,70.76
2019-03-31T04:41:49.232Z,70.79
2019-03-31T04:44:21.666Z,70.90
2019-03-31T04:46:54.033Z,71.06
2019-03-31T04:49:26.431Z,71.18
2019-03-31T04:51:58.829Z,71.10
2019-03-31T04:54:31.194Z,71.20
2019-03-31T04:57:04.588Z,71.05
2019-03-31T04:59:37.166Z,71.04
2019-03-31T05:02:10.647Z,71.05
2019-03-31T05:04:43.029Z,71.29
2019-03-31T05:07:16.499Z,71.30
2019-03-31T05:09:48.887Z,71.30
2019-03-31T05:12:21.313Z,71.30
2019-03-31T05:14:53.682Z,71.38
2019-03-31T05:17:26.046Z,71.51
2019-03-31T05:19:58.454Z,71.41
2019-03-31T05:22:30.847Z,71.38
2019-03-31T05:25:03.306Z,71.48
2019-03-31T05:27:35.689Z,71.40
2019-03-31T05:30:08.490Z,71.30
2019-03-31T05:32:40.892Z,71.33
2019-03-31T05:35:13.475Z,71.07
2019-03-31T05:37:51.113Z,70.98
2019-03-31T05:40:20.047Z,70.51
2019-03-31T05:42:52.435Z,70.19
2019-03-31T05:45:25.903Z,69.91
2019-03-31T05:47:58.330Z,69.68
2019-03-31T05:50:30.720Z,68.95
2019-03-31T05:53:03.105Z,68.75
2019-03-31T05:55:35.466Z,67.97
2019-03-31T05:58:07.853Z,67.77
2019-03-31T06:00:44.599Z,66.69
2019-03-31T06:03:17.032Z,66.47
2019-03-31T06:05:49.424Z,66.52
2019-03-31T06:08:22.812Z,66.52
2019-03-31T06:10:55.200Z,65.70
2019-03-31T06:13:27.589Z,65.27
2019-03-31T06:15:59.967Z,65.07
2019-03-31T06:18:33.450Z,63.66
2019-03-31T06:21:05.827Z,63.60
2019-03-31T06:23:38.300Z,63.23
2019-03-31T06:26:10.759Z,63.37
2019-03-31T06:28:43.207Z,62.69
2019-03-31T06:31:15.622Z,62.04
2019-03-31T06:33:48.105Z,61.21
2019-03-31T06:36:20.480Z,60.74
2019-03-31T06:38:53.095Z,61.44
2019-03-31T06:41:25.510Z,60.34
2019-03-31T06:43:57.913Z,60.04
2019-03-31T06:46:30.485Z,60.98
2019-03-31T06:49:02.939Z,60.82
2019-03-31T06:51:35.323Z,58.42
2019-03-31T06:54:07.746Z,59.76
2019-03-31T06:56:40.179Z,60.04
2019-03-31T06:59:13.840Z,59.28
2019-03-31T07:01:46.247Z,59.21
2019-03-31T07:04:18.665Z,58.74
2019-03-31T07:06:51.064Z,58.65
2019-03-31T07:09:23.525Z,58.04
2019-03-31T07:11:55.950Z,57.97
2019-03-31T07:14:28.397Z,56.63
2019-03-31T07:17:00.817Z,55.99
2019-03-31T07:19:33.225Z,54.84
2019-03-31T07:22:05.682Z,56.87
2019-03-31T07:24:38.157Z,55.76
2019-03-31T07:27:10.571Z,55.39
2019-03-31T07:29:43.005Z,56.17
2019-03-31T07:32:15.441Z,54.45
2019-03-31T07:34:48.927Z,55.16
2019-03-31T07:37:21.333Z,53.21
2019-03-31T07:39:53.737Z,52.83
2019-03-31T07:42:26.496Z,52.82
2019-03-31T07:44:59.196Z,54.33
2019-03-31T07:47:31.670Z,51.83
2019-03-31T07:50:04.417Z,52.18
2019-03-31T07:52:37.080Z,52.23
2019-03-31T07:55:10.204Z,52.02
2019-03-31T07:57:42.714Z,51.98
2019-03-31T08:00:20.434Z,51.50
2019-03-31T08:02:53.926Z,50.03
2019-03-31T08:05:33.012Z,50.91
2019-03-31T08:08:00.434Z,51.52
2019-03-31T08:10:32.859Z,51.87
2019-03-31T08:13:05.438Z,50.70
2019-03-31T08:15:37.847Z,48.87
2019-03-31T08:18:10.286Z,46.20
2019-03-31T08:20:42.757Z,46.48
2019-03-31T08:23:15.206Z,44.67
2019-03-31T08:25:47.607Z,44.05
2019-03-31T08:28:20.240Z,42.91
2019-03-31T08:30:52.709Z,41.87
2019-03-31T08:33:25.150Z,43.11
2019-03-31T08:35:57.527Z,44.37
2019-03-31T08:38:29.964Z,44.59
2019-03-31T08:41:02.547Z,45.01
2019-03-31T08:43:34.967Z,44.53
2019-03-31T08:46:07.453Z,43.29
2019-03-31T08:48:41.463Z,42.62
2019-03-31T08:51:15.479Z,42.66
2019-03-31T08:53:49.801Z,42.65
2019-03-31T08:56:23.335Z,43.71
2019-03-31T08:58:55.762Z,43.79
2019-03-31T09:01:28.207Z,44.00
2019-03-31T09:04:00.906Z,43.30
2019-03-31T09:06:33.372Z,43.70
2019-03-31T09:09:08.338Z,41.40
2019-03-31T09:11:40.804Z,41.50
2019-03-31T09:14:13.355Z,42.21
2019-03-31T09:16:45.805Z,42.57
2019-03-31T09:19:18.261Z,41.33
2019-03-31T09:21:51.907Z,40.91
2019-03-31T09:24:24.361Z,39.86
2019-03-31T09:26:56.784Z,41.23
2019-03-31T09:29:29.193Z,42.67
2019-03-31T09:32:01.628Z,41.27
2019-03-31T09:34:34.051Z,41.47
2019-03-31T09:37:06.520Z,40.53
2019-03-31T09:39:38.963Z,41.02
2019-03-31T09:42:11.412Z,42.92
2019-03-31T09:44:43.854Z,41.19
2019-03-31T09:47:16.298Z,41.04
2019-03-31T09:49:48.719Z,42.42
2019-03-31T09:52:21.145Z,39.81
2019-03-31T09:54:53.532Z,40.63
2019-03-31T09:57:25.956Z,39.59
2019-03-31T09:59:58.420Z,40.47
2019-03-31T10:02:30.889Z,40.87
2019-03-31T10:05:03.360Z,40.85
2019-03-31T10:07:36.778Z,37.82
2019-03-31T10:10:13.940Z,40.00
2019-03-31T10:12:46.458Z,37.91
2019-03-31T10:15:19.181Z,38.22
2019-03-31T10:17:51.603Z,36.94
2019-03-31T10:20:24.093Z,36.09
2019-03-31T10:22:56.509Z,36.44
2019-03-31T10:25:28.928Z,36.01
2019-03-31T10:28:01.368Z,34.48
2019-03-31T10:30:36.744Z,36.13
2019-03-31T10:33:09.701Z,37.14
2019-03-31T10:35:42.140Z,36.58
2019-03-31T10:38:15.832Z,35.08
2019-03-31T10:40:48.277Z,32.05
2019-03-31T10:43:20.642Z,35.11
2019-03-31T10:45:53.382Z,34.78
2019-03-31T10:48:25.767Z,33.34
2019-03-31T10:50:58.449Z,33.23
2019-03-31T10:53:30.952Z,34.06
2019-03-31T10:56:03.436Z,34.02
2019-03-31T10:58:35.826Z,33.24
2019-03-31T11:01:08.377Z,32.61
2019-03-31T11:03:40.793Z,32.13
2019-03-31T11:06:13.258Z,32.37
2019-03-31T11:08:45.778Z,32.75
2019-03-31T11:11:28.831Z,33.38
2019-03-31T11:14:01.240Z,33.05
2019-03-31T11:16:33.780Z,33.31
2019-03-31T11:19:06.455Z,32.82
2019-03-31T11:22:14.187Z,33.36
2019-03-31T11:24:46.626Z,33.96
2019-03-31T11:27:19.291Z,34.25
2019-03-31T11:29:51.802Z,34.05
2019-03-31T11:32:24.241Z,35.01
2019-03-31T11:34:56.640Z,32.96
2019-03-31T11:37:29.059Z,34.18
2019-03-31T11:40:01.459Z,34.28
2019-03-31T11:42:33.948Z,34.33
2019-03-31T11:45:06.958Z,35.16
2019-03-31T11:47:39.370Z,34.84
2019-03-31T11:50:12.117Z,34.67
2019-03-31T11:52:44.550Z,35.02
2019-03-31T11:55:16.965Z,35.75
2019-03-31T11:57:49.387Z,35.28
2019-03-31T12:00:22.610Z,35.61
2019-03-31T12:02:55.235Z,35.49
2019-03-31T12:05:27.850Z,35.88
2019-03-31T12:08:00.231Z,36.06
2019-03-31T12:10:32.983Z,36.93
2019-03-31T12:13:05.497Z,34.95
2019-03-31T12:15:38.418Z,34.38
2019-03-31T12:18:10.908Z,33.85
2019-03-31T12:20:43.345Z,33.92
2019-03-31T12:23:15.757Z,34.45
2019-03-31T12:25:48.178Z,34.82
2019-03-31T12:28:20.596Z,34.08
2019-03-31T12:30:53.047Z,34.17
2019-03-31T12:33:25.504Z,33.80
2019-03-31T12:35:58.065Z,32.67
2019-03-31T12:38:30.569Z,32.34
2019-03-31T12:41:02.982Z,31.91
2019-03-31T12:43:35.403Z,32.15
2019-03-31T12:46:07.888Z,32.02
2019-03-31T12:48:40.310Z,32.13
2019-03-31T12:51:12.747Z,32.28
2019-03-31T12:53:45.177Z,32.27
2019-03-31T12:56:17.699Z,32.77
2019-03-31T12:58:50.144Z,32.28
2019-03-31T13:01:22.524Z,31.66
2019-03-31T13:03:54.961Z,31.53
2019-03-31T13:06:27.376Z,32.23
2019-03-31T13:08:59.815Z,31.82
2019-03-31T13:11:32.259Z,31.36
2019-03-31T13:14:04.708Z,31.62
2019-03-31T13:16:37.180Z,31.70
2019-03-31T13:19:09.596Z,32.12
2019-03-31T13:21:41.996Z,32.76
2019-03-31T13:24:14.462Z,33.34
2019-03-31T13:26:46.859Z,31.60
2019-03-31T13:29:20.396Z,31.88
2019-03-31T13:31:52.783Z,32.13
2019-03-31T13:34:25.248Z,31.77
2019-03-31T13:36:57.695Z,31.78
2019-03-31T13:39:30.167Z,31.93
2019-03-31T13:42:02.776Z,31.61
2019-03-31T13:44:35.281Z,31.83
2019-03-31T13:47:07.685Z,32.14
2019-03-31T13:49:40.070Z,31.58
2019-03-31T13:52:12.585Z,31.69
2019-03-31T13:54:45.040Z,31.93
2019-03-31T13:57:18.198Z,33.12
2019-03-31T13:59:50.974Z,32.36
2019-03-31T14:02:23.375Z,31.80
2019-03-31T14:04:55.839Z,31.40
2019-03-31T14:07:28.299Z,31.88
2019-03-31T14:10:00.935Z,31.64
2019-03-31T14:12:33.472Z,32.06
2019-03-31T14:15:18.934Z,31.74
2019-03-31T14:17:43.134Z,32.88
2019-03-31T14:20:15.904Z,32.99
2019-03-31T14:22:48.360Z,32.92
2019-03-31T14:25:20.746Z,33.52
2019-03-31T14:27:53.460Z,32.28
2019-03-31T14:30:25.919Z,32.55
2019-03-31T14:32:58.351Z,32.66
2019-03-31T14:35:30.782Z,32.73
2019-03-31T14:38:03.204Z,32.95
2019-03-31T14:40:35.647Z,32.85
2019-03-31T14:43:08.031Z,34.09
2019-03-31T14:45:41.103Z,33.63
2019-03-31T14:48:13.546Z,33.72
2019-03-31T14:50:45.996Z,34.13
2019-03-31T14:53:18.387Z,34.12
2019-03-31T14:55:50.847Z,34.03
2019-03-31T14:58:23.254Z,33.67
2019-03-31T15:00:55.953Z,33.54
2019-03-31T15:03:28.434Z,33.53
2019-03-31T15:06:00.873Z,33.51
2019-03-31T15:08:33.283Z,33.40
2019-03-31T15:11:05.736Z,33.43
2019-03-31T15:13:38.152Z,33.38
2019-03-31T15:16:10.912Z,33.44
2019-03-31T15:18:43.367Z,32.90
2019-03-31T15:21:17.240Z,33.35
2019-03-31T15:23:49.703Z,33.39
2019-03-31T15:26:22.189Z,33.29
2019-03-31T15:28:54.632Z,32.79
2019-03-31T15:31:27.064Z,33.33
2019-03-31T15:33:59.480Z,33.39
2019-03-31T15:36:32.217Z,33.40
2019-03-31T15:39:09.151Z,33.37
2019-03-31T15:41:40.756Z,33.31
2019-03-31T15:44:13.191Z,33.20
2019-03-31T15:46:45.594Z,32.76
2019-03-31T15:49:18.053Z,32.58
2019-03-31T15:51:50.500Z,33.31
2019-03-31T15:54:24.076Z,33.33
2019-03-31T15:56:56.536Z,33.12
2019-03-31T15:59:28.925Z,33.35
2019-03-31T16:02:01.534Z,33.61
2019-03-31T16:04:34.083Z,34.09
2019-03-31T16:07:06.460Z,34.06
2019-03-31T16:09:38.065Z,33.56
2019-03-31T16:12:09.889Z,33.42
2019-03-31T16:14:41.510Z,33.45
2019-03-31T16:17:13.400Z,33.56
2019-03-31T16:19:45.077Z,33.05
2019-03-31T16:22:16.744Z,33.80
2019-03-31T16:24:50.456Z,33.74
2019-03-31T16:27:22.161Z,33.60
2019-03-31T16:29:53.802Z,34.07
2019-03-31T16:32:25.434Z,34.55
2019-03-31T16:34:57.301Z,35.09
2019-03-31T16:37:28.963Z,34.17
2019-03-31T16:40:00.570Z,34.08
2019-03-31T16:42:33.351Z,34.33
2019-03-31T16:45:16.362Z,34.37
2019-03-31T16:47:48.036Z,34.15
2019-03-31T16:50:19.933Z,34.83
2019-03-31T16:52:52.848Z,35.18
2019-03-31T16:55:24.684Z,34.76
2019-03-31T16:57:56.338Z,33.86
2019-03-31T17:00:28.538Z,34.35
2019-03-31T17:03:00.157Z,34.34
2019-03-31T17:05:31.769Z,34.12
2019-03-31T17:08:03.381Z,34.55
2019-03-31T17:10:34.998Z,34.71
2019-03-31T17:13:07.708Z,34.89
2019-03-31T17:15:39.380Z,34.66
2019-03-31T17:18:11.069Z,34.59
2019-03-31T17:20:42.703Z,35.22
2019-03-31T17:23:14.302Z,35.05
2019-03-31T17:25:45.990Z,34.75
2019-03-31T17:28:17.648Z,35.27
2019-03-31T17:30:49.322Z,35.09
2019-03-31T17:33:20.978Z,35.10
2019-03-31T17:35:52.608Z,35.21
2019-03-31T17:38:24.479Z,35.15
2019-03-31T17:40:56.091Z,35.28
2019-03-31T17:43:27.810Z,34.88
2019-03-31T17:45:59.429Z,35.16
2019-03-31T17:48:31.046Z,35.10
2019-03-31T17:51:02.741Z,34.98
2019-03-31T17:53:34.372Z,35.17
2019-03-31T17:56:05.987Z,35.03
2019-03-31T17:58:37.607Z,35.27
2019-03-31T18:01:09.524Z,35.41
2019-03-31T18:03:41.126Z,35.33
2019-03-31T18:06:12.760Z,35.42
2019-03-31T18:08:44.467Z,35.69
2019-03-31T18:11:16.159Z,35.80
2019-03-31T18:13:47.841Z,36.18
2019-03-31T18:16:19.459Z,36.49
2019-03-31T18:18:51.106Z,36.96
2019-03-31T18:21:22.719Z,37.21
2019-03-31T18:23:54.504Z,37.81
2019-03-31T18:26:26.120Z,38.15
2019-03-31T18:28:57.741Z,38.55
2019-03-31T18:31:30.404Z,39.18
2019-03-31T18:34:04.557Z,39.34
2019-03-31T18:36:37.237Z,39.63
2019-03-31T18:39:09.036Z,39.92
2019-03-31T18:41:40.962Z,40.61
2019-03-31T18:44:12.569Z,40.96
2019-03-31T18:46:44.200Z,41.36
2019-03-31T18:49:15.806Z,41.79
2019-03-31T18:51:47.456Z,42.25
2019-03-31T18:54:31.452Z,42.54
2019-03-31T18:57:32.436Z,43.04
2019-03-31T19:00:33.062Z,43.70
2019-03-31T19:03:26.345Z,43.86
2019-03-31T19:06:37.051Z,44.50
2019-03-31T19:09:43.899Z,44.95
2019-03-31T19:12:45.132Z,45.29
2019-03-31T19:15:34.295Z,45.70
2019-03-31T19:18:33.724Z,46.12
2019-03-31T19:21:17.311Z,46.30
2019-03-31T19:24:19.998Z,46.49
2019-03-31T19:27:12.114Z,46.68
2019-03-31T19:29:55.952Z,47.10
2019-03-31T19:32:39.452Z,47.31
2019-03-31T19:35:36.398Z,47.49
2019-03-31T19:38:19.923Z,47.71
2019-03-31T19:41:09.164Z,48.13
2019-03-31T19:44:02.714Z,48.28
2019-03-31T19:46:56.503Z,48.61
2019-03-31T19:49:56.135Z,48.86
2019-03-31T19:52:44.153Z,48.94
2019-03-31T19:55:27.578Z,49.08
2019-03-31T19:58:07.896Z,49.57
2019-03-31T20:00:45.414Z,49.79
2019-03-31T20:03:36.023Z,49.74
2019-03-31T20:06:31.707Z,49.78
2019-03-31T20:09:22.196Z,50.07
2019-03-31T20:12:01.649Z,50.40
2019-03-31T20:14:51.136Z,50.57
2019-03-31T20:17:37.089Z,50.68
2019-03-31T20:20:18.772Z,50.93
2019-03-31T20:22:59.023Z,51.31
2019-03-31T20:25:52.275Z,51.58
2019-03-31T20:28:48.992Z,51.81
2019-03-31T20:31:34.891Z,52.21
2019-03-31T20:34:19.604Z,52.54
2019-03-31T20:37:03.275Z,52.80
2019-03-31T20:39:56.157Z,53.05
2019-03-31T20:42:36.436Z,53.27
2019-03-31T20:45:08.532Z,53.64
2019-03-31T20:47:40.191Z,53.82
2019-03-31T20:50:11.762Z,54.26
2019-03-31T20:52:43.422Z,54.60
2019-03-31T20:55:16.465Z,54.80
2019-03-31T20:57:48.591Z,55.21
2019-03-31T21:00:21.300Z,55.55
2019-03-31T21:02:53.054Z,55.47
2019-03-31T21:05:24.675Z,55.95
2019-03-31T21:07:56.343Z,56.21
2019-03-31T21:10:28.390Z,56.53
2019-03-31T21:12:59.979Z,56.90
2019-03-31T21:15:31.596Z,57.04
2019-03-31T21:18:03.261Z,57.81
2019-03-31T21:20:35.934Z,58.10
2019-03-31T21:23:07.586Z,58.21
2019-03-31T21:25:39.183Z,58.44
2019-03-31T21:28:10.832Z,58.96
2019-03-31T21:30:42.410Z,59.12
2019-03-31T21:33:14.045Z,59.13
2019-03-31T21:35:48.480Z,59.06
2019-03-31T21:38:18.954Z,59.45
2019-03-31T21:40:51.642Z,59.65
2019-03-31T21:43:23.288Z,59.83
2019-03-31T21:45:54.891Z,59.88
2019-03-31T21:48:26.521Z,60.30
2019-03-31T21:50:58.225Z,60.81
2019-03-31T21:53:29.878Z,60.84
2019-03-31T21:56:01.473Z,61.44
2019-03-31T21:58:33.199Z,61.88
2019-03-31T22:01:04.979Z,62.31
2019-03-31T22:03:36.842Z,62.52
2019-03-31T22:06:08.452Z,62.40
2019-03-31T22:08:40.067Z,63.08
2019-03-31T22:11:11.663Z,63.37
2019-03-31T22:13:43.445Z,63.80
2019-03-31T22:16:15.023Z,64.12
2019-03-31T22:18:46.627Z,64.82
2019-03-31T22:21:18.293Z,64.96
2019-03-31T22:23:57.955Z,64.96
2019-03-31T22:26:23.302Z,65.31
2019-03-31T22:28:55.039Z,65.48
2019-03-31T22:31:26.661Z,65.81
2019-03-31T22:33:58.264Z,65.77
2019-03-31T22:36:29.927Z,65.92
2019-03-31T22:39:01.489Z,65.89
2019-03-31T22:41:34.359Z,66.03
2019-03-31T22:44:05.991Z,65.88
2019-03-31T22:46:37.588Z,65.82
2019-03-31T22:49:09.164Z,65.80
2019-03-31T22:51:40.783Z,65.74
2019-03-31T22:54:12.356Z,65.72
2019-03-31T22:56:43.967Z,65.72
2019-03-31T22:59:15.552Z,65.36
2019-03-31T23:01:47.144Z,65.55
2019-03-31T23:04:19.941Z,65.75
2019-03-31T23:06:51.584Z,65.81
2019-03-31T23:09:23.173Z,65.80
2019-03-31T23:11:54.766Z,65.97
2019-03-31T23:14:26.364Z,65.82
2019-03-31T23:16:57.986Z,65.99
2019-03-31T23:19:29.585Z,66.06
2019-03-31T23:22:01.152Z,65.94
2019-03-31T23:24:32.757Z,65.71
2019-03-31T23:27:04.351Z,65.66
2019-03-31T23:29:35.945Z,65.49
2019-03-31T23:32:07.633Z,65.37
2019-03-31T23:34:39.248Z,65.16
2019-03-31T23:37:10.849Z,65.12
2019-03-31T23:39:42.411Z,65.05
2019-03-31T23:42:14.097Z,65.06
2019-03-31T23:44:45.686Z,65.12
2019-03-31T23:47:18.378Z,64.97
2019-03-31T23:49:50.014Z,64.79
2019-03-31T23:52:21.595Z,64.86
2019-03-31T23:54:53.211Z,64.37
2019-03-31T23:57:40.211Z,64.57
